Time;durP1;ratioP1;P1;durP2;ratioP2;P2;SDS_P1;SDS_P2;PMS_P1;PMS_P2;Temp;Humidity;BMP_temperature;BMP_pressure;BME280_temperature;BME280_humidity;BME280_pressure;Samples;Min_cycle;Max_cycle;Signal;HPM_P1;HPM_P2
2022/03/11 00:02:24;;;;;;;18.87;8.07;;;6.50;82.40;;;;;;5052059;28;20170;-76
2022/03/11 00:04:50;;;;;;;15.83;7.57;;;6.40;82.80;;;;;;5051145;28;20699;-78
2022/03/11 00:07:15;;;;;;;19.87;7.57;;;6.30;83.30;;;;;;5052126;28;20191;-76
2022/03/11 00:09:41;;;;;;;20.43;8.37;;;6.30;84.00;;;;;;5051860;28;20191;-76
2022/03/11 00:12:08;;;;;;;16.87;8.03;;;6.30;83.60;;;;;;5051697;28;20180;-77
2022/03/11 00:14:35;;;;;;;17.53;7.57;;;6.30;83.70;;;;;;5051901;28;20180;-77
2022/03/11 00:17:02;;;;;;;17.13;7.60;;;6.30;84.20;;;;;;5052186;28;20660;-77
2022/03/11 00:19:28;;;;;;;18.07;8.37;;;6.30;84.20;;;;;;5050137;28;20241;-77
2022/03/11 00:21:55;;;;;;;16.63;7.70;;;6.30;84.20;;;;;;5051800;28;20235;-77
2022/03/11 00:24:21;;;;;;;21.33;8.57;;;6.20;84.80;;;;;;5051884;28;20206;-77
2022/03/11 00:26:47;;;;;;;15.60;8.00;;;6.20;84.80;;;;;;5051518;28;20635;-76
2022/03/11 00:29:12;;;;;;;22.57;8.00;;;6.20;85.30;;;;;;5051779;28;20185;-76
2022/03/11 00:31:38;;;;;;;16.57;8.07;;;6.20;85.10;;;;;;5051522;28;20177;-76
2022/03/11 00:34:04;;;;;;;20.63;8.43;;;6.20;85.30;;;;;;5051012;28;20212;-76
2022/03/11 00:36:29;;;;;;;22.93;8.83;;;6.20;85.70;;;;;;5051521;28;20610;-76
2022/03/11 00:38:55;;;;;;;18.83;8.63;;;6.10;86.10;;;;;;5051690;28;20737;-76
2022/03/11 00:41:21;;;;;;;26.30;8.40;;;6.10;86.50;;;;;;5051297;28;20296;-76
2022/03/11 00:43:46;;;;;;;22.97;8.63;;;6.10;86.60;;;;;;5051161;28;20590;-76
2022/03/11 00:46:12;;;;;;;18.70;8.50;;;6.10;86.70;;;;;;5051747;28;20173;-76
2022/03/11 00:48:38;;;;;;;18.83;9.07;;;6.10;86.50;;;;;;5051507;28;20188;-76
2022/03/11 00:51:03;;;;;;;20.70;8.90;;;6.10;86.70;;;;;;5051023;28;20176;-76
2022/03/11 00:53:29;;;;;;;19.10;8.10;;;6.00;87.10;;;;;;5051348;28;20181;-76
2022/03/11 00:55:55;;;;;;;22.47;8.17;;;6.00;87.50;;;;;;5051233;28;20180;-77
2022/03/11 00:58:21;;;;;;;21.37;8.90;;;5.90;87.90;;;;;;5051464;28;20557;-76
2022/03/11 01:00:47;;;;;;;19.43;9.23;;;5.90;87.90;;;;;;5051039;28;20176;-77
2022/03/11 01:03:13;;;;;;;21.47;9.37;;;6.00;87.80;;;;;;5050946;28;20197;-77
2022/03/11 01:05:38;;;;;;;22.13;9.37;;;5.90;87.80;;;;;;5052202;28;20191;-77
2022/03/11 01:08:04;;;;;;;21.70;9.03;;;5.80;88.60;;;;;;5050856;28;20193;-76
2022/03/11 01:10:30;;;;;;;22.17;9.67;;;5.90;88.40;;;;;;5050866;28;20633;-76
2022/03/11 01:12:56;;;;;;;29.60;9.67;;;5.90;88.70;;;;;;5050705;28;20176;-77
2022/03/11 01:15:21;;;;;;;23.37;10.53;;;5.80;88.90;;;;;;5050734;28;20200;-76
2022/03/11 01:17:47;;;;;;;21.13;9.43;;;5.80;88.90;;;;;;5050527;28;20236;-77
2022/03/11 01:20:13;;;;;;;23.33;9.47;;;5.80;88.90;;;;;;5050703;28;20184;-76
2022/03/11 01:22:39;;;;;;;18.80;9.43;;;5.90;89.10;;;;;;5050341;28;20199;-76
2022/03/11 01:25:06;;;;;;;21.90;9.90;;;5.80;89.20;;;;;;5050596;28;20180;-76
2022/03/11 01:27:33;;;;;;;23.70;9.87;;;5.80;89.10;;;;;;5048247;28;20228;-76
2022/03/11 01:29:59;;;;;;;23.13;10.07;;;5.80;89.20;;;;;;5050508;28;20172;-76
2022/03/11 01:32:28;;;;;;;25.60;10.13;;;5.70;89.70;;;;;;5050290;28;20210;-77
2022/03/11 01:34:53;;;;;;;20.70;8.93;;;5.70;89.70;;;;;;5049897;28;20259;-77
2022/03/11 01:37:19;;;;;;;21.03;9.07;;;5.70;90.00;;;;;;5050190;28;20270;-77
2022/03/11 01:39:45;;;;;;;25.60;10.37;;;5.60;89.80;;;;;;5050172;28;20260;-77
2022/03/11 01:42:12;;;;;;;20.37;9.93;;;5.60;90.00;;;;;;5050088;28;20236;-76
2022/03/11 01:44:37;;;;;;;26.37;10.30;;;5.60;90.00;;;;;;5050025;28;20293;-76
2022/03/11 01:47:04;;;;;;;21.37;9.60;;;5.60;90.20;;;;;;5033862;28;20247;-78
2022/03/11 01:49:30;;;;;;;25.10;9.50;;;5.60;90.10;;;;;;5050052;28;20200;-77
2022/03/11 01:51:56;;;;;;;21.63;9.40;;;5.60;90.10;;;;;;5049898;28;20177;-76
2022/03/11 01:54:21;;;;;;;24.37;9.43;;;5.50;90.20;;;;;;5050099;28;20204;-77
2022/03/11 01:56:47;;;;;;;23.00;9.90;;;5.50;90.30;;;;;;5050230;28;20240;-77
2022/03/11 01:59:13;;;;;;;22.00;9.90;;;5.50;90.60;;;;;;5049916;28;20206;-77
2022/03/11 02:01:39;;;;;;;22.63;9.90;;;5.40;90.50;;;;;;5049660;28;20180;-77
2022/03/11 02:04:05;;;;;;;22.53;10.70;;;5.40;90.70;;;;;;5049697;28;20213;-76
2022/03/11 02:06:31;;;;;;;26.63;10.60;;;5.30;90.80;;;;;;5050070;28;20165;-78
2022/03/11 02:08:59;;;;;;;24.93;10.43;;;5.30;90.70;;;;;;5049828;28;20284;-77
2022/03/11 02:11:25;;;;;;;27.13;10.27;;;5.40;90.50;;;;;;5050004;28;20589;-78
2022/03/11 02:13:53;;;;;;;23.00;10.33;;;5.40;90.50;;;;;;5048182;28;20239;-77
2022/03/11 02:16:23;;;;;;;22.63;9.77;;;5.30;90.70;;;;;;5049734;28;20215;-77
2022/03/11 02:18:49;;;;;;;24.83;10.80;;;5.40;90.80;;;;;;5049852;28;20213;-77
2022/03/11 02:21:17;;;;;;;22.00;10.20;;;5.30;90.70;;;;;;5049608;28;20177;-77
2022/03/11 02:23:47;;;;;;;25.67;11.07;;;5.30;90.80;;;;;;5049846;28;20201;-77
2022/03/11 02:26:17;;;;;;;24.87;10.77;;;5.20;90.90;;;;;;5047932;28;20511;-76
2022/03/11 02:28:44;;;;;;;25.33;11.00;;;5.20;90.90;;;;;;5051748;28;20205;-78
2022/03/11 02:31:10;;;;;;;23.43;10.33;;;5.20;91.10;;;;;;5053863;28;20193;-77
2022/03/11 02:33:36;;;;;;;27.37;11.80;;;5.10;91.10;;;;;;5053954;28;20221;-77
2022/03/11 02:36:01;;;;;;;26.53;10.97;;;5.10;91.50;;;;;;5053609;28;20694;-77
2022/03/11 02:38:27;;;;;;;24.57;10.17;;;5.10;91.20;;;;;;5053846;28;20751;-76
2022/03/11 02:40:54;;;;;;;31.77;11.07;;;5.00;91.40;;;;;;5053510;28;20315;-76
2022/03/11 02:43:20;;;;;;;26.40;10.63;;;5.00;91.30;;;;;;5053653;28;20281;-76
2022/03/11 02:45:46;;;;;;;28.63;11.57;;;5.00;91.40;;;;;;5053567;28;20173;-76
2022/03/11 02:48:11;;;;;;;27.23;10.87;;;5.00;91.50;;;;;;5053729;28;20599;-76
2022/03/11 02:50:38;;;;;;;27.00;11.30;;;5.00;91.50;;;;;;5053225;28;20539;-76
2022/03/11 02:53:04;;;;;;;21.50;10.10;;;5.00;91.40;;;;;;5053503;28;20181;-76
2022/03/11 02:55:29;;;;;;;27.60;11.37;;;5.00;91.50;;;;;;5053576;28;20186;-76
2022/03/11 02:57:55;;;;;;;29.27;11.33;;;5.00;91.40;;;;;;5053356;28;20795;-76
2022/03/11 03:00:21;;;;;;;29.63;11.40;;;5.00;91.50;;;;;;5052957;28;20200;-76
2022/03/11 03:02:47;;;;;;;30.47;11.07;;;4.90;91.70;;;;;;5052766;28;20269;-76
2022/03/11 03:05:13;;;;;;;29.60;12.10;;;4.90;91.80;;;;;;5052747;28;20213;-76
2022/03/11 03:07:39;;;;;;;25.90;10.83;;;4.80;91.80;;;;;;5050793;28;20775;-76
2022/03/11 03:10:06;;;;;;;24.53;10.07;;;4.70;92.00;;;;;;5052922;28;20248;-76
2022/03/11 03:12:32;;;;;;;28.77;11.50;;;4.60;92.20;;;;;;5052532;28;20166;-76
2022/03/11 03:14:58;;;;;;;27.80;11.50;;;4.70;92.20;;;;;;5052842;28;20165;-76
2022/03/11 03:17:24;;;;;;;26.60;11.07;;;4.60;92.30;;;;;;5052602;28;20175;-76
2022/03/11 03:19:50;;;;;;;29.47;12.10;;;4.60;92.40;;;;;;5052702;28;20586;-76
2022/03/11 03:22:16;;;;;;;28.60;12.07;;;4.50;92.50;;;;;;5052736;28;20256;-76
2022/03/11 03:24:42;;;;;;;28.27;10.20;;;4.50;92.60;;;;;;5054148;28;20277;-76
2022/03/11 03:27:09;;;;;;;30.00;11.20;;;4.50;92.30;;;;;;5052711;28;20534;-76
2022/03/11 03:29:35;;;;;;;26.40;11.47;;;4.50;92.40;;;;;;5052522;28;20535;-76
2022/03/11 03:32:00;;;;;;;23.90;10.53;;;4.60;92.30;;;;;;5052529;28;20219;-76
2022/03/11 03:34:32;;;;;;;24.30;11.30;;;4.60;92.30;;;;;;5052048;28;20678;-76
2022/03/11 03:37:04;;;;;;;29.70;11.80;;;4.60;92.20;;;;;;5053876;28;20202;-76
2022/03/11 03:39:30;;;;;;;27.03;11.77;;;4.50;92.40;;;;;;5047353;28;20227;-76
2022/03/11 03:41:56;;;;;;;27.43;11.53;;;4.50;92.30;;;;;;5052366;28;20189;-76
2022/03/11 03:44:22;;;;;;;26.67;11.00;;;4.50;92.50;;;;;;5052496;28;20198;-76
2022/03/11 03:46:49;;;;;;;26.50;11.13;;;4.40;92.50;;;;;;5052337;28;20756;-76
2022/03/11 03:49:15;;;;;;;33.10;11.30;;;4.40;92.40;;;;;;5052435;28;20188;-77
2022/03/11 03:51:41;;;;;;;28.97;10.73;;;4.40;92.80;;;;;;5053371;28;20166;-76
2022/03/11 03:54:10;;;;;;;31.00;12.13;;;4.40;92.60;;;;;;5052359;28;20581;-77
2022/03/11 03:56:37;;;;;;;32.13;12.03;;;4.30;92.70;;;;;;5052226;28;20170;-76
2022/03/11 03:59:07;;;;;;;28.10;12.17;;;4.30;92.80;;;;;;5052083;28;20220;-76
2022/03/11 04:01:34;;;;;;;31.03;12.27;;;4.20;92.90;;;;;;5051952;28;20173;-76
2022/03/11 04:04:02;;;;;;;30.30;11.37;;;4.20;92.90;;;;;;5052014;28;20767;-77
2022/03/11 04:06:28;;;;;;;33.67;12.17;;;4.10;93.00;;;;;;5051942;28;20165;-76
2022/03/11 04:08:56;;;;;;;29.57;11.63;;;4.10;92.90;;;;;;5052080;28;20192;-76
2022/03/11 04:11:31;;;;;;;27.93;11.67;;;4.20;92.80;;;;;;5051891;28;20276;-77
2022/03/11 04:13:58;;;;;;;28.70;10.70;;;4.20;92.80;;;;;;5050695;28;20255;-76
2022/03/11 04:16:24;;;;;;;28.70;12.03;;;4.20;92.90;;;;;;5052100;28;20201;-77
2022/03/11 04:18:50;;;;;;;27.50;11.23;;;4.20;92.80;;;;;;5051968;28;20216;-76
2022/03/11 04:21:17;;;;;;;28.13;11.57;;;4.10;92.80;;;;;;5051713;28;20173;-76
2022/03/11 04:23:45;;;;;;;29.10;11.33;;;4.20;92.70;;;;;;5051560;28;20552;-77
2022/03/11 04:26:10;;;;;;;29.90;11.20;;;4.20;92.80;;;;;;5051479;28;20584;-76
2022/03/11 04:28:37;;;;;;;32.30;11.67;;;4.10;93.00;;;;;;5051490;28;20189;-77
2022/03/11 04:31:04;;;;;;;26.67;11.30;;;4.00;93.20;;;;;;5052596;28;20200;-77
2022/03/11 04:33:30;;;;;;;33.03;11.87;;;4.10;92.90;;;;;;5051464;28;20169;-77
2022/03/11 04:35:57;;;;;;;28.73;12.10;;;4.00;93.20;;;;;;5051469;28;20443;-77
2022/03/11 04:38:23;;;;;;;31.70;12.17;;;4.00;93.10;;;;;;5051648;28;20280;-77
2022/03/11 04:40:48;;;;;;;31.83;11.90;;;4.00;92.90;;;;;;5051527;28;20265;-77
2022/03/11 04:43:14;;;;;;;29.50;12.00;;;4.00;92.90;;;;;;5051034;28;20193;-76
2022/03/11 04:45:40;;;;;;;28.67;12.00;;;3.90;93.10;;;;;;5051478;28;20261;-77
2022/03/11 04:48:06;;;;;;;35.40;12.97;;;3.90;93.30;;;;;;5051114;28;20189;-76
2022/03/11 04:50:32;;;;;;;31.07;12.93;;;3.90;93.40;;;;;;5050820;28;20173;-76
2022/03/11 04:52:57;;;;;;;35.73;12.27;;;3.90;93.40;;;;;;5050869;28;20230;-77
2022/03/11 04:55:23;;;;;;;33.00;12.50;;;3.90;93.40;;;;;;5051039;28;20264;-76
2022/03/11 04:57:49;;;;;;;31.33;13.03;;;3.90;93.50;;;;;;5050976;28;20197;-76
2022/03/11 05:00:15;;;;;;;30.43;12.93;;;3.90;93.30;;;;;;5051086;28;20646;-76
2022/03/11 05:02:44;;;;;;;33.20;13.17;;;3.80;93.40;;;;;;5051935;28;20645;-76
2022/03/11 05:05:11;;;;;;;34.10;13.10;;;3.90;93.10;;;;;;5050694;28;20189;-77
2022/03/11 05:07:37;;;;;;;30.47;12.40;;;3.90;93.20;;;;;;5050673;28;20177;-76
2022/03/11 05:10:08;;;;;;;32.60;12.87;;;3.80;93.40;;;;;;5050745;28;20249;-76
2022/03/11 05:12:35;;;;;;;40.63;14.33;;;3.80;93.30;;;;;;5048842;28;20592;-76
2022/03/11 05:15:02;;;;;;;29.90;12.73;;;3.80;93.40;;;;;;5050682;28;20241;-76
2022/03/11 05:17:27;;;;;;;32.83;12.63;;;3.80;93.30;;;;;;5051993;28;20180;-77
2022/03/11 05:19:53;;;;;;;33.57;13.07;;;3.80;93.30;;;;;;5050756;28;20196;-76
2022/03/11 05:22:19;;;;;;;33.87;13.40;;;3.90;93.40;;;;;;5051626;28;20193;-76
2022/03/11 05:24:45;;;;;;;35.17;16.47;;;3.80;93.30;;;;;;5050389;28;20760;-76
2022/03/11 05:27:11;;;;;;;35.77;13.17;;;3.80;93.30;;;;;;5050190;28;20267;-76
2022/03/11 05:29:37;;;;;;;33.00;12.87;;;3.80;93.30;;;;;;5050376;28;20284;-76
2022/03/11 05:32:03;;;;;;;37.57;13.60;;;3.80;93.30;;;;;;5050251;28;20586;-78
2022/03/11 05:34:29;;;;;;;36.60;13.67;;;3.70;93.50;;;;;;5050655;28;20624;-77
2022/03/11 05:36:55;;;;;;;34.80;14.53;;;3.70;93.50;;;;;;5050533;28;20259;-76
2022/03/11 05:39:20;;;;;;;32.93;13.43;;;3.70;93.70;;;;;;5050061;28;20197;-76
2022/03/11 05:41:46;;;;;;;34.93;12.93;;;3.70;93.50;;;;;;5050310;28;20176;-76
2022/03/11 05:44:13;;;;;;;34.27;13.27;;;3.80;93.30;;;;;;5050552;28;20193;-76
2022/03/11 05:46:39;;;;;;;39.00;14.37;;;3.80;93.20;;;;;;5050481;28;20196;-76
2022/03/11 05:49:05;;;;;;;29.23;12.87;;;3.70;93.10;;;;;;5050188;28;20666;-76
2022/03/11 05:51:30;;;;;;;31.23;13.40;;;3.80;93.30;;;;;;5047764;28;20176;-76
2022/03/11 05:53:56;;;;;;;33.77;12.47;;;3.70;93.20;;;;;;5050255;28;20188;-76
2022/03/11 05:56:22;;;;;;;36.33;13.93;;;3.70;92.90;;;;;;5050099;28;20169;-76
2022/03/11 05:58:49;;;;;;;31.53;13.57;;;3.70;93.50;;;;;;5048663;28;20295;-76
2022/03/11 06:01:16;;;;;;;33.07;14.10;;;3.70;93.20;;;;;;5049682;28;20724;-76
2022/03/11 06:03:42;;;;;;;33.17;13.93;;;3.70;93.40;;;;;;5049921;28;20207;-76
2022/03/11 06:06:07;;;;;;;34.57;13.73;;;3.60;93.30;;;;;;5050035;28;20266;-76
2022/03/11 06:08:33;;;;;;;36.30;13.17;;;3.60;93.50;;;;;;5049887;28;20200;-77
2022/03/11 06:10:59;;;;;;;35.03;13.00;;;3.70;93.20;;;;;;5049867;28;20608;-76
2022/03/11 06:13:24;;;;;;;39.73;14.30;;;3.60;93.30;;;;;;5049833;28;20649;-76
2022/03/11 06:15:50;;;;;;;39.20;14.10;;;3.60;93.30;;;;;;5049938;28;20592;-76
2022/03/11 06:18:18;;;;;;;38.53;14.43;;;3.70;93.20;;;;;;5050231;28;20750;-75
2022/03/11 06:20:45;;;;;;;37.73;14.23;;;3.60;93.20;;;;;;5050219;28;20697;-76
2022/03/11 06:23:10;;;;;;;35.80;13.83;;;3.60;93.30;;;;;;5049558;28;20205;-76
2022/03/11 06:25:36;;;;;;;31.13;13.50;;;3.60;93.30;;;;;;5049790;28;20199;-76
2022/03/11 06:28:03;;;;;;;30.03;13.40;;;3.60;93.40;;;;;;5049924;28;20188;-76
2022/03/11 06:30:31;;;;;;;34.83;13.93;;;3.60;93.40;;;;;;5049895;28;20170;-76
2022/03/11 06:32:57;;;;;;;35.63;13.63;;;3.60;93.30;;;;;;5049849;28;20639;-76
2022/03/11 06:35:23;;;;;;;35.10;14.90;;;3.60;93.30;;;;;;5049648;28;20180;-76
2022/03/11 06:37:52;;;;;;;36.80;13.83;;;3.70;93.10;;;;;;5047850;28;20557;-76
2022/03/11 06:40:18;;;;;;;35.70;13.50;;;3.70;93.10;;;;;;5049513;28;20177;-76
2022/03/11 06:42:46;;;;;;;34.50;14.17;;;3.70;93.20;;;;;;5049484;28;20647;-76
2022/03/11 06:45:13;;;;;;;34.83;13.40;;;3.90;92.90;;;;;;5049890;28;20177;-76
2022/03/11 06:47:39;;;;;;;36.23;13.93;;;4.00;92.30;;;;;;5047689;28;20554;-76
2022/03/11 06:50:06;;;;;;;36.60;13.90;;;4.00;92.40;;;;;;5049588;28;20170;-76
2022/03/11 06:52:32;;;;;;;38.43;13.50;;;4.00;92.60;;;;;;5049414;28;20517;-76
2022/03/11 06:54:58;;;;;;;37.60;14.10;;;4.10;92.40;;;;;;5049799;28;20181;-76
2022/03/11 06:57:23;;;;;;;35.17;13.53;;;4.40;91.70;;;;;;5049538;28;20201;-76
2022/03/11 06:59:50;;;;;;;29.70;12.30;;;4.50;91.40;;;;;;5049506;28;20255;-76
2022/03/11 07:02:16;;;;;;;33.30;13.63;;;4.90;90.10;;;;;;5049624;28;20539;-76
2022/03/11 07:04:42;;;;;;;33.70;14.43;;;5.30;89.50;;;;;;5049343;28;20211;-76
2022/03/11 07:07:08;;;;;;;39.50;14.60;;;5.00;90.10;;;;;;5049629;28;20269;-77
2022/03/11 07:09:34;;;;;;;30.33;13.23;;;5.50;88.70;;;;;;5049557;28;20193;-77
2022/03/11 07:12:01;;;;;;;33.13;14.57;;;5.80;86.40;;;;;;5047263;28;20175;-76
2022/03/11 07:14:35;;;;;;;31.83;12.97;;;5.80;87.00;;;;;;5055493;28;20186;-80
2022/03/11 07:17:10;;;;;;;36.17;14.93;;;5.90;85.60;;;;;;5059594;28;20180;-80
2022/03/11 07:19:36;;;;;;;32.17;13.27;;;6.40;85.00;;;;;;5058193;28;20195;-79
2022/03/11 07:22:04;;;;;;;32.90;14.07;;;5.90;86.20;;;;;;5059557;28;20176;-80
2022/03/11 07:24:31;;;;;;;40.77;15.20;;;6.40;84.60;;;;;;5060379;28;20578;-80
2022/03/11 07:26:57;;;;;;;26.97;13.00;;;7.80;79.00;;;;;;5059095;28;20172;-79
2022/03/11 07:29:23;;;;;;;29.73;14.43;;;7.70;77.90;;;;;;5060283;28;20190;-80
2022/03/11 07:31:49;;;;;;;34.37;15.00;;;8.30;77.40;;;;;;5058940;28;20183;-80
2022/03/11 07:34:16;;;;;;;31.10;14.73;;;8.40;75.10;;;;;;5058696;28;20251;-80
2022/03/11 07:36:41;;;;;;;34.00;14.23;;;8.40;76.40;;;;;;5059216;28;20162;-79
2022/03/11 07:39:08;;;;;;;32.97;14.83;;;9.30;73.70;;;;;;5059651;28;20221;-79
2022/03/11 07:41:35;;;;;;;31.43;14.13;;;8.80;74.60;;;;;;5060529;28;20709;-79
2022/03/11 07:44:01;;;;;;;29.37;13.67;;;8.60;74.90;;;;;;5062320;28;20196;-80
2022/03/11 07:46:28;;;;;;;30.33;14.47;;;8.40;76.30;;;;;;5063210;28;20175;-80
2022/03/11 07:48:54;;;;;;;27.73;14.40;;;9.20;72.70;;;;;;5062298;28;20215;-79
2022/03/11 07:51:20;;;;;;;34.97;15.00;;;9.60;72.30;;;;;;5061990;28;20533;-80
2022/03/11 07:53:46;;;;;;;28.70;14.00;;;10.10;70.50;;;;;;5063180;28;20363;-80
2022/03/11 07:56:14;;;;;;;28.53;14.63;;;9.70;72.60;;;;;;5061562;28;20287;-79
2022/03/11 07:58:41;;;;;;;30.00;14.73;;;10.20;70.10;;;;;;5064710;28;20193;-80
2022/03/11 08:01:08;;;;;;;30.17;14.27;;;10.70;68.30;;;;;;5067469;28;20212;-79
2022/03/11 08:03:34;;;;;;;35.97;15.70;;;10.70;70.10;;;;;;5062547;28;20200;-80
2022/03/11 08:06:00;;;;;;;32.13;13.97;;;11.30;67.60;;;;;;5061154;28;20237;-80
2022/03/11 08:08:27;;;;;;;27.20;14.07;;;10.00;70.50;;;;;;5059276;28;20217;-80
2022/03/11 08:10:54;;;;;;;28.47;14.17;;;10.40;69.10;;;;;;5058766;28;20183;-80
2022/03/11 08:13:20;;;;;;;31.63;15.50;;;11.20;67.50;;;;;;5059686;28;20637;-80
2022/03/11 08:15:46;;;;;;;29.20;14.77;;;10.60;67.60;;;;;;5058259;28;20988;-81
2022/03/11 08:18:12;;;;;;;26.30;14.03;;;10.00;71.00;;;;;;5060372;28;20230;-80
2022/03/11 08:20:37;;;;;;;30.17;15.03;;;10.00;72.70;;;;;;5059099;28;20176;-81
2022/03/11 08:23:03;;;;;;;28.93;13.97;;;9.70;72.40;;;;;;5061710;28;20203;-80
2022/03/11 08:25:29;;;;;;;30.93;14.60;;;9.30;73.90;;;;;;5062408;28;20280;-80
2022/03/11 08:27:56;;;;;;;31.80;14.83;;;9.50;72.90;;;;;;5060208;28;20200;-79
2022/03/11 08:30:23;;;;;;;27.60;13.80;;;9.60;72.80;;;;;;5061277;28;20584;-81
2022/03/11 08:32:49;;;;;;;30.03;15.07;;;10.40;70.30;;;;;;5060809;28;20177;-81
2022/03/11 08:35:15;;;;;;;27.30;14.83;;;10.20;68.90;;;;;;5061447;28;20170;-80
2022/03/11 08:37:42;;;;;;;28.33;14.30;;;10.50;67.50;;;;;;5055874;28;20241;-81
2022/03/11 08:40:09;;;;;;;28.57;14.70;;;12.30;64.50;;;;;;5055759;28;20540;-80
2022/03/11 08:42:35;;;;;;;26.80;14.33;;;11.10;65.70;;;;;;5058085;28;20207;-82
2022/03/11 08:45:02;;;;;;;27.67;15.03;;;11.10;65.40;;;;;;5059677;28;20215;-81
2022/03/11 08:47:28;;;;;;;26.87;14.40;;;11.30;66.90;;;;;;5057786;28;20176;-83
2022/03/11 08:49:54;;;;;;;26.37;14.07;;;10.80;67.40;;;;;;5056817;28;20268;-81
2022/03/11 08:52:21;;;;;;;30.37;13.90;;;11.10;69.10;;;;;;5057437;28;20207;-82
2022/03/11 08:54:47;;;;;;;27.13;13.90;;;10.60;66.30;;;;;;5058956;28;20646;-80
2022/03/11 08:57:12;;;;;;;27.67;13.83;;;9.80;68.70;;;;;;5056068;28;20188;-82
2022/03/11 08:59:38;;;;;;;27.00;14.00;;;10.10;68.00;;;;;;5059309;28;20749;-81
2022/03/11 09:02:07;;;;;;;28.80;14.30;;;9.60;67.10;;;;;;5058602;28;20657;-82
2022/03/11 09:04:34;;;;;;;27.17;14.23;;;9.30;67.90;;;;;;5057791;28;20217;-81
2022/03/11 09:07:00;;;;;;;27.50;13.10;;;9.70;68.00;;;;;;5058609;28;20176;-81
2022/03/11 09:09:25;;;;;;;32.10;13.90;;;10.10;66.80;;;;;;5058542;28;20200;-82
2022/03/11 09:11:51;;;;;;;27.67;13.90;;;10.00;67.70;;;;;;5058707;28;20205;-81
2022/03/11 09:14:18;;;;;;;28.27;12.83;;;9.90;67.00;;;;;;5058010;28;20217;-81
2022/03/11 09:16:44;;;;;;;28.13;13.17;;;9.90;67.60;;;;;;5060153;28;20204;-82
2022/03/11 09:19:10;;;;;;;25.43;12.53;;;10.20;67.20;;;;;;5059434;28;20224;-81
2022/03/11 09:21:35;;;;;;;24.27;12.53;;;10.10;65.20;;;;;;5056118;28;20250;-82
2022/03/11 09:24:02;;;;;;;24.13;12.10;;;9.70;65.60;;;;;;5058569;28;20672;-81
2022/03/11 09:26:28;;;;;;;23.73;12.13;;;9.90;64.70;;;;;;5056792;28;20201;-80
2022/03/11 09:28:54;;;;;;;26.50;12.43;;;10.40;64.80;;;;;;5058039;28;20191;-81
2022/03/11 09:31:20;;;;;;;25.53;12.33;;;10.20;64.60;;;;;;5057000;28;20591;-81
2022/03/11 09:33:45;;;;;;;24.17;12.93;;;10.10;64.80;;;;;;5058371;28;20182;-81
2022/03/11 09:36:12;;;;;;;29.23;11.93;;;10.20;65.10;;;;;;5056756;28;20230;-81
2022/03/11 09:38:38;;;;;;;24.67;11.17;;;10.20;64.30;;;;;;5056195;28;20227;-80
2022/03/11 09:41:05;;;;;;;23.33;11.93;;;10.40;65.00;;;;;;5057321;28;20203;-81
2022/03/11 09:43:35;;;;;;;24.63;11.23;;;10.40;63.70;;;;;;5058385;28;20669;-80
2022/03/11 09:46:06;;;;;;;24.70;11.47;;;10.50;64.10;;;;;;5057864;28;20644;-81
2022/03/11 09:48:35;;;;;;;29.20;12.37;;;10.80;64.20;;;;;;5057495;28;20201;-80
2022/03/11 09:51:02;;;;;;;24.80;11.70;;;10.40;63.60;;;;;;5058247;28;20173;-81
2022/03/11 09:53:28;;;;;;;24.03;12.47;;;10.60;63.80;;;;;;5057962;28;20269;-80
2022/03/11 09:55:54;;;;;;;30.37;12.17;;;10.30;63.20;;;;;;5056593;28;20211;-81
2022/03/11 09:58:20;;;;;;;22.40;11.67;;;10.10;63.70;;;;;;5057187;28;20221;-81
2022/03/11 10:00:47;;;;;;;29.00;13.07;;;10.30;63.10;;;;;;5055391;28;20609;-81
2022/03/11 10:03:13;;;;;;;28.07;12.97;;;10.30;64.20;;;;;;5056460;28;20204;-81
2022/03/11 10:05:51;;;;;;;23.67;11.83;;;10.90;63.10;;;;;;5055076;28;20262;-81
2022/03/11 10:08:28;;;;;;;22.77;11.37;;;10.50;62.60;;;;;;5056531;28;20738;-81
2022/03/11 10:10:54;;;;;;;33.73;11.53;;;10.30;63.00;;;;;;5056723;28;20161;-81
2022/03/11 10:13:20;;;;;;;26.67;11.80;;;10.50;62.90;;;;;;5056363;28;20181;-80
2022/03/11 10:15:45;;;;;;;28.07;10.87;;;10.90;62.90;;;;;;5055529;28;20267;-81
2022/03/11 10:18:12;;;;;;;34.23;11.43;;;10.80;61.70;;;;;;5053684;28;20230;-80
2022/03/11 10:20:38;;;;;;;21.97;10.80;;;10.90;63.60;;;;;;5055010;28;20191;-81
2022/03/11 10:23:12;;;;;;;21.87;10.87;;;10.60;61.70;;;;;;5055720;28;20177;-82
2022/03/11 10:25:38;;;;;;;21.63;10.33;;;10.90;62.10;;;;;;5055088;28;20202;-82
2022/03/11 10:28:09;;;;;;;24.47;10.33;;;11.30;62.20;;;;;;5055517;28;20195;-82
2022/03/11 10:30:38;;;;;;;20.37;9.87;;;11.00;61.30;;;;;;5057501;28;20166;-82
2022/03/11 10:33:07;;;;;;;22.77;11.00;;;11.00;61.10;;;;;;5055983;28;20170;-82
2022/03/11 10:35:41;;;;;;;21.03;10.73;;;11.20;62.40;;;;;;5056141;28;20178;-81
2022/03/11 10:38:12;;;;;;;22.63;10.53;;;11.60;60.60;;;;;;5054306;28;20194;-82
2022/03/11 10:40:52;;;;;;;22.73;11.07;;;11.50;61.70;;;;;;5056115;28;20159;-82
2022/03/11 10:43:20;;;;;;;23.27;10.50;;;11.70;60.40;;;;;;5055958;28;20201;-81
2022/03/11 10:45:53;;;;;;;18.77;10.53;;;11.90;59.90;;;;;;5055742;28;20173;-82
2022/03/11 10:48:40;;;;;;;22.63;10.23;;;11.60;60.40;;;;;;5055681;28;20214;-82
2022/03/11 10:51:11;;;;;;;23.77;10.70;;;11.30;60.30;;;;;;5059147;28;20201;-83
2022/03/11 10:53:40;;;;;;;22.63;9.50;;;11.40;60.80;;;;;;5060237;28;20891;-82
2022/03/11 10:56:07;;;;;;;22.67;10.07;;;11.30;59.30;;;;;;5060857;28;20171;-82
2022/03/11 10:58:33;;;;;;;19.33;10.23;;;11.30;60.70;;;;;;5059440;28;20193;-82
2022/03/11 11:00:59;;;;;;;22.13;9.97;;;11.30;60.30;;;;;;5058788;28;20173;-82
2022/03/11 11:03:25;;;;;;;18.03;9.97;;;11.50;60.60;;;;;;5058300;28;20287;-81
2022/03/11 11:05:50;;;;;;;18.00;10.23;;;11.40;59.70;;;;;;5057582;28;20182;-82
2022/03/11 11:08:18;;;;;;;23.53;10.07;;;11.30;59.30;;;;;;5059706;28;20200;-82
2022/03/11 11:10:45;;;;;;;20.30;10.10;;;11.60;59.40;;;;;;5059055;28;20232;-82
2022/03/11 11:13:11;;;;;;;19.23;9.10;;;11.90;59.10;;;;;;5057676;28;20256;-82
2022/03/11 11:15:39;;;;;;;20.77;9.50;;;11.60;58.70;;;;;;5058037;28;20178;-82
2022/03/11 11:18:11;;;;;;;19.23;10.20;;;11.80;59.60;;;;;;5057528;28;20222;-82
2022/03/11 11:20:50;;;;;;;22.67;10.07;;;11.60;59.10;;;;;;5057976;28;20167;-82
2022/03/11 11:23:16;;;;;;;22.33;9.23;;;12.20;59.80;;;;;;5057570;28;20192;-80
2022/03/11 11:25:43;;;;;;;21.03;9.87;;;12.20;58.80;;;;;;5060436;28;20275;-83
2022/03/11 11:28:19;;;;;;;18.27;9.63;;;12.10;57.70;;;;;;5062809;28;20194;-82
2022/03/11 11:30:46;;;;;;;21.77;9.80;;;12.10;58.20;;;;;;5063281;28;20161;-82
2022/03/11 11:33:14;;;;;;;18.53;9.47;;;12.20;57.80;;;;;;5062637;28;20175;-84
2022/03/11 11:35:41;;;;;;;19.70;9.60;;;12.00;58.00;;;;;;5061997;28;20181;-82
2022/03/11 11:38:28;;;;;;;25.33;9.97;;;12.20;59.20;;;;;;5057570;28;20272;-82
2022/03/11 11:40:56;;;;;;;20.10;9.23;;;12.40;57.40;;;;;;5043248;28;20191;-82
2022/03/11 11:43:27;;;;;;;19.10;9.00;;;12.90;57.60;;;;;;5056152;28;20294;-82
2022/03/11 11:46:01;;;;;;;19.13;8.90;;;13.20;57.00;;;;;;5056131;28;20173;-81
2022/03/11 11:48:33;;;;;;;19.80;9.13;;;12.90;56.80;;;;;;5056366;28;20207;-81
2022/03/11 11:51:00;;;;;;;17.87;9.63;;;13.10;56.30;;;;;;5056277;28;20253;-82
2022/03/11 11:53:43;;;;;;;20.90;10.20;;;12.50;56.40;;;;;;5055950;28;20188;-82
2022/03/11 11:56:43;;;;;;;18.90;9.70;;;12.10;57.80;;;;;;5056655;28;20168;-82
2022/03/11 11:59:29;;;;;;;23.00;8.73;;;12.40;57.50;;;;;;5055756;28;20203;-82
2022/03/11 12:02:02;;;;;;;18.13;9.17;;;13.10;58.10;;;;;;5056193;28;20176;-82
2022/03/11 12:04:38;;;;;;;20.63;9.80;;;12.80;57.00;;;;;;5057128;28;20209;-82
2022/03/11 12:07:16;;;;;;;16.90;8.23;;;12.90;56.90;;;;;;5058288;28;20602;-81
2022/03/11 12:09:42;;;;;;;15.60;8.60;;;12.90;56.60;;;;;;5058636;28;20192;-77
2022/03/11 12:12:14;;;;;;;20.50;10.03;;;13.20;57.80;;;;;;5059652;28;20181;-78
2022/03/11 12:14:59;;;;;;;22.33;10.03;;;13.10;56.70;;;;;;5058335;28;20180;-80
2022/03/11 12:17:43;;;;;;;16.70;8.83;;;12.80;56.50;;;;;;5059578;28;20176;-81
2022/03/11 12:20:33;;;;;;;25.90;9.33;;;13.10;57.10;;;;;;5059808;28;20684;-81
2022/03/11 12:23:05;;;;;;;25.43;9.03;;;13.10;56.10;;;;;;5062892;28;20183;-82
2022/03/11 12:26:06;;;;;;;15.03;8.37;;;12.90;56.70;;;;;;5058480;28;20260;-81
2022/03/11 12:28:34;;;;;;;22.80;9.23;;;12.90;55.90;;;;;;5014266;28;20207;-81
2022/03/11 12:31:13;;;;;;;18.13;9.63;;;12.80;56.50;;;;;;5061343;28;20217;-82
2022/03/11 12:33:45;;;;;;;19.70;8.27;;;13.10;57.00;;;;;;5058180;28;20227;-81
2022/03/11 12:36:24;;;;;;;23.40;9.17;;;13.00;56.10;;;;;;5058948;28;20177;-80
2022/03/11 12:38:51;;;;;;;19.23;8.57;;;12.90;56.60;;;;;;5061533;28;20200;-81